Time;durP1;ratioP1;P1;durP2;ratioP2;P2;SDS_P1;SDS_P2;PMS_P1;PMS_P2;Temp;Humidity;BMP_temperature;BMP_pressure;BME280_temperature;BME280_humidity;BME280_pressure;Samples;Min_cycle;Max_cycle;Signal;HPM_P1;HPM_P2
2022/01/28 00:00:59;;;;;;;;;;;;;;;;;;4910142;29;20719;-68
2022/01/28 00:03:24;;;;;;;;;;;;;;;;;;4918307;29;19923;-68
2022/01/28 00:05:49;;;;;;;;;;;;;;;;;;4914397;29;19966;-69
2022/01/28 00:08:15;;;;;;;;;;;;;;;;;;4913755;29;19947;-73
2022/01/28 00:10:40;;;;;;;;;;;;;;;;;;4917623;29;20372;-68
2022/01/28 00:13:24;;;;;;;;;;;;;;;;;;4918182;29;19923;-70
2022/01/28 00:39:44;;;;;;;;;;;;;;;;;;4918210;29;20025;-70
2022/01/28 00:42:09;;;;;;;;;;;;;;;;;;4919259;29;19919;-71
2022/01/28 00:44:35;;;;;;;;;;;;;;;;;;4917412;29;19919;-69
2022/01/28 00:47:00;;;;;;;;;;;;;;;;;;4918980;29;19926;-69
2022/01/28 00:49:25;;;;;;;;;;;;;;;;;;4918209;29;19925;-69
2022/01/28 00:51:51;;;;;;;;;;;;;;;;;;4917594;29;19934;-70
2022/01/28 00:54:17;;;;;;;;;;;;;;;;;;4916562;29;19918;-71
2022/01/28 00:56:43;;;;;;;;;;;;;;;;;;4918837;29;19997;-69
2022/01/28 00:59:08;;;;;;;;;;;;;;;;;;4918749;29;20013;-72
2022/01/28 01:01:33;;;;;;;;;;;;;;;;;;4910439;29;20006;-71
2022/01/28 01:03:58;;;;;;;;;;;;;;;;;;4913405;29;19966;-73
2022/01/28 01:06:24;;;;;;;;;;;;;;;;;;4915886;29;19923;-70
2022/01/28 01:08:49;;;;;;;;;;;;;;;;;;4913765;29;19938;-70
2022/01/28 01:11:16;;;;;;;;;;;;;;;;;;4929552;29;19919;-71
2022/01/28 01:13:42;;;;;;;;;;;;;;;;;;4916390;29;19978;-69
2022/01/28 01:16:11;;;;;;;;;;;;;;;;;;4918060;29;19926;-69
2022/01/28 01:21:12;;;;;;;;;;;;;;;;;;4916809;29;19919;-70
2022/01/28 01:23:40;;;;;;;;;;;;;;;;;;4918626;29;19965;-72
2022/01/28 01:26:11;;;;;;;;;;;;;;;;;;4918432;29;19918;-70
2022/01/28 01:28:38;;;;;;;;;;;;;;;;;;4915668;29;19965;-69
2022/01/28 01:31:04;;;;;;;;;;;;;;;;;;4916710;29;20402;-70
2022/01/28 01:33:33;;;;;;;;;;;;;;;;;;4917408;29;19998;-70
2022/01/28 01:35:58;;;;;;;;;;;;;;;;;;4915856;29;19918;-69
2022/01/28 01:38:26;;;;;;;;;;;;;;;;;;4914713;29;19919;-69
2022/01/28 01:40:55;;;;;;;;;;;;;;;;;;4917944;29;19934;-70
2022/01/28 01:43:37;;;;;;;;;;;;;;;;;;4916363;29;19922;-71
2022/01/28 01:53:56;;;;;;;;;;;;;;;;;;4916456;29;19919;-69
2022/01/28 01:56:21;;;;;;;;;;;;;;;;;;4915030;29;19990;-69
2022/01/28 01:58:46;;;;;;;;;;;;;;;;;;4914259;29;20336;-71
2022/01/28 02:01:11;;;;;;;;;;;;;;;;;;4915826;29;19919;-72
2022/01/28 02:03:37;;;;;;;;;;;;;;;;;;4915622;29;20380;-70
2022/01/28 02:06:02;;;;;;;;;;;;;;;;;;4917711;29;20341;-70
2022/01/28 02:08:27;;;;;;;;;;;;;;;;;;4916701;29;20338;-71
2022/01/28 02:10:57;;;;;;;;;;;;;;;;;;4919958;29;19915;-70
2022/01/28 02:13:22;;;;;;;;;;;;;;;;;;4916832;28;19930;-72
2022/01/28 02:15:47;;;;;;;;;;;;;;;;;;4915965;29;19919;-68
2022/01/28 02:18:12;;;;;;;;;;;;;;;;;;4916410;29;20005;-71
2022/01/28 02:20:41;;;;;;;;;;;;;;;;;;4917307;29;20026;-70
2022/01/28 02:23:07;;;;;;;;;;;;;;;;;;4918049;29;19922;-70
2022/01/28 02:25:33;;;;;;;;;;;;;;;;;;4917604;29;20340;-71
2022/01/28 02:27:59;;;;;;;;;;;;;;;;;;4912805;29;19919;-71
2022/01/28 02:30:24;;;;;;;;;;;;;;;;;;4913763;29;19925;-70
2022/01/28 02:32:50;;;;;;;;;;;;;;;;;;4917006;29;19918;-69
2022/01/28 02:35:16;;;;;;;;;;;;;;;;;;4920772;29;19970;-69
2022/01/28 02:37:41;;;;;;;;;;;;;;;;;;4921857;29;20013;-70
2022/01/28 02:40:06;;;;;;;;;;;;;;;;;;4920621;29;19927;-73
2022/01/28 02:42:49;;;;;;;;;;;;;;;;;;4917581;29;19919;-69
2022/01/28 02:45:25;;;;;;;;;;;;;;;;;;4920216;29;20414;-70
2022/01/28 02:47:55;;;;;;;;;;;;;;;;;;4921581;29;19916;-70
2022/01/28 02:50:20;;;;;;;;;;;;;;;;;;4918655;29;19965;-69
2022/01/28 02:53:01;;;;;;;;;;;;;;;;;;4934330;29;19947;-70
2022/01/28 02:55:26;;;;;;;;;;;;;;;;;;4919876;29;20360;-70
2022/01/28 02:58:03;;;;;;;;;;;;;;;;;;4918343;29;20422;-70
2022/01/28 03:00:28;;;;;;;;;;;;;;;;;;4920662;29;19937;-69
2022/01/28 03:02:53;;;;;;;;;;;;;;;;;;4920030;29;19922;-70
2022/01/28 03:07:50;;;;;;;;;;;;;;;;;;4919449;29;19919;-70
2022/01/28 03:10:29;;;;;;;;;;;;;;;;;;4920063;29;19926;-70
2022/01/28 03:15:35;;;;;;;;;;;;;;;;;;4919667;29;21573;-69
2022/01/28 03:18:46;;;;;;;;;;;;;;;;;;4919065;29;20013;-70
2022/01/28 03:23:17;;;;;;;;;;;;;;;;;;4920518;29;20475;-69
2022/01/28 03:25:44;;;;;;;;;;;;;;;;;;4935585;29;19962;-71
2022/01/28 03:28:09;;;;;;;;;;;;;;;;;;4919533;29;19962;-69
2022/01/28 03:30:34;;;;;;;;;;;;;;;;;;4918880;29;20280;-70
2022/01/28 03:32:59;;;;;;;;;;;;;;;;;;4918915;29;19974;-69
2022/01/28 03:35:25;;;;;;;;;;;;;;;;;;4918331;29;19923;-70
2022/01/28 03:37:58;;;;;;;;;;;;;;;;;;4919589;29;19915;-70
2022/01/28 03:40:23;;;;;;;;;;;;;;;;;;4918440;29;19970;-70
2022/01/28 03:42:49;;;;;;;;;;;;;;;;;;4919758;29;19919;-69
2022/01/28 03:45:14;;;;;;;;;;;;;;;;;;4919035;29;19919;-71
2022/01/28 03:47:39;;;;;;;;;;;;;;;;;;4921089;29;19973;-69
2022/01/28 03:50:04;;;;;;;;;;;;;;;;;;4920757;29;20332;-71
2022/01/28 03:52:29;;;;;;;;;;;;;;;;;;4917761;29;20408;-70
2022/01/28 03:54:55;;;;;;;;;;;;;;;;;;4918097;29;19920;-70
2022/01/28 03:57:20;;;;;;;;;;;;;;;;;;4919517;29;19918;-69
2022/01/28 03:59:45;;;;;;;;;;;;;;;;;;4918874;29;19927;-69
2022/01/28 04:02:10;;;;;;;;;;;;;;;;;;4919079;29;19919;-70
2022/01/28 04:12:37;;;;;;;;;;;;;;;;;;4917598;29;20451;-71
2022/01/28 04:17:30;;;;;;;;;;;;;;;;;;4916769;29;20379;-71
2022/01/28 04:19:55;;;;;;;;;;;;;;;;;;4933063;29;19974;-71
2022/01/28 04:22:21;;;;;;;;;;;;;;;;;;4918638;29;19918;-71
2022/01/28 04:24:46;;;;;;;;;;;;;;;;;;4920237;29;19966;-71
2022/01/28 04:27:11;;;;;;;;;;;;;;;;;;4922549;29;20001;-71
2022/01/28 04:29:36;;;;;;;;;;;;;;;;;;4918968;29;20363;-71
2022/01/28 04:32:01;;;;;;;;;;;;;;;;;;4916218;29;19923;-71
2022/01/28 04:34:27;;;;;;;;;;;;;;;;;;4919094;29;19934;-71
2022/01/28 04:39:35;;;;;;;;;;;;;;;;;;4915472;29;19927;-71
2022/01/28 04:42:15;;;;;;;;;;;;;;;;;;4918852;29;20462;-69
2022/01/28 04:45:02;;;;;;;;;;;;;;;;;;4917980;29;20345;-69
2022/01/28 04:47:46;;;;;;;;;;;;;;;;;;4921320;29;19925;-70
2022/01/28 04:53:24;;;;;;;;;;;;;;;;;;4915262;29;19919;-69
2022/01/28 05:09:11;;;;;;;;;;;;;;;;;;4916351;29;19922;-70
2022/01/28 05:27:17;;;;;;;;;;;;;;;;;;4918056;29;19989;-69
2022/01/28 05:29:42;;;;;;;;;;;;;;;;;;4918966;29;19981;-69
2022/01/28 05:32:08;;;;;;;;;;;;;;;;;;4916262;29;20472;-69
2022/01/28 05:34:33;;;;;;;;;;;;;;;;;;4916243;29;19926;-69
2022/01/28 05:36:58;;;;;;;;;;;;;;;;;;4932044;29;19923;-69
2022/01/28 05:39:23;;;;;;;;;;;;;;;;;;4917978;29;19966;-69
2022/01/28 05:41:48;;;;;;;;;;;;;;;;;;4915736;29;19978;-71
2022/01/28 05:44:14;;;;;;;;;;;;;;;;;;4917599;29;19919;-70
2022/01/28 05:46:39;;;;;;;;;;;;;;;;;;4915350;29;19919;-71
2022/01/28 05:49:05;;;;;;;;;;;;;;;;;;4917147;29;19946;-71
2022/01/28 05:51:30;;;;;;;;;;;;;;;;;;4915728;29;19927;-69
2022/01/28 05:53:58;;;;;;;;;;;;;;;;;;4918494;29;20025;-70
2022/01/28 05:56:23;;;;;;;;;;;;;;;;;;4915799;29;19919;-69
2022/01/28 05:58:48;;;;;;;;;;;;;;;;;;4915874;29;19923;-69
2022/01/28 06:01:13;;;;;;;;;;;;;;;;;;4917624;29;20377;-70
2022/01/28 06:03:39;;;;;;;;;;;;;;;;;;4917315;29;20403;-68
2022/01/28 06:06:04;;;;;;;;;;;;;;;;;;4912656;29;19922;-69
2022/01/28 06:08:29;;;;;;;;;;;;;;;;;;4913090;29;19919;-71
2022/01/28 06:10:55;;;;;;;;;;;;;;;;;;4916408;29;19974;-69
2022/01/28 06:13:20;;;;;;;;;;;;;;;;;;4914366;29;19923;-70
2022/01/28 06:15:45;;;;;;;;;;;;;;;;;;4932689;29;19930;-69
2022/01/28 06:18:10;;;;;;;;;;;;;;;;;;4916391;29;19919;-71
2022/01/28 06:20:35;;;;;;;;;;;;;;;;;;4915542;29;19927;-69
2022/01/28 06:23:01;;;;;;;;;;;;;;;;;;4918960;29;19969;-70
2022/01/28 06:25:26;;;;;;;;;;;;;;;;;;4917161;29;20002;-70
2022/01/28 06:27:51;;;;;;;;;;;;;;;;;;4916467;29;20276;-69
2022/01/28 06:30:17;;;;;;;;;;;;;;;;;;4912869;29;20399;-69
2022/01/28 06:32:42;;;;;;;;;;;;;;;;;;4919394;29;20410;-70
2022/01/28 06:35:08;;;;;;;;;;;;;;;;;;4917601;29;19919;-71
2022/01/28 06:37:33;;;;;;;;;;;;;;;;;;4917362;29;20384;-69
2022/01/28 06:39:58;;;;;;;;;;;;;;;;;;4917410;29;19923;-70
2022/01/28 06:42:23;;;;;;;;;;;;;;;;;;4918958;29;20171;-69
2022/01/28 06:44:48;;;;;;;;;;;;;;;;;;4918519;29;19923;-70
2022/01/28 06:47:14;;;;;;;;;;;;;;;;;;4919109;29;19919;-69
2022/01/28 06:49:39;;;;;;;;;;;;;;;;;;4929728;29;19923;-69
2022/01/28 06:52:04;;;;;;;;;;;;;;;;;;4916173;29;20006;-70
2022/01/28 06:54:29;;;;;;;;;;;;;;;;;;4915663;29;20385;-69
2022/01/28 06:56:54;;;;;;;;;;;;;;;;;;4916248;29;20394;-69
2022/01/28 06:59:20;;;;;;;;;;;;;;;;;;4917382;29;19933;-69
2022/01/28 07:01:45;;;;;;;;;;;;;;;;;;4914910;29;19919;-70
2022/01/28 07:04:10;;;;;;;;;;;;;;;;;;4912411;29;19926;-70
2022/01/28 07:06:35;;;;;;;;;;;;;;;;;;4917676;29;19931;-69
2022/01/28 07:09:01;;;;;;;;;;;;;;;;;;4915190;29;19974;-69
2022/01/28 07:11:26;;;;;;;;;;;;;;;;;;4915641;29;19990;-69
2022/01/28 07:13:51;;;;;;;;;;;;;;;;;;4930989;29;19919;-68
2022/01/28 07:16:16;;;;;;;;;;;;;;;;;;4903538;29;20096;-70
2022/01/28 07:18:41;;;;;;;;;;;;;;;;;;4913473;29;19919;-68
2022/01/28 07:21:07;;;;;;;;;;;;;;;;;;4913106;29;19927;-68
2022/01/28 07:23:32;;;;;;;;;;;;;;;;;;4912359;29;19919;-69
2022/01/28 07:25:57;;;;;;;;;;;;;;;;;;4916633;29;19942;-69
2022/01/28 07:28:25;;;;;;;;;;;;;;;;;;4913426;29;19919;-69
2022/01/28 07:30:50;;;;;;;;;;;;;;;;;;4906034;29;20612;-70
2022/01/28 07:33:15;;;;;;;;;;;;;;;;;;4913744;29;20684;-70
2022/01/28 07:35:40;;;;;;;;;;;;;;;;;;4931875;28;20426;-70
2022/01/28 07:38:06;;;;;;;;;;;;;;;;;;4915234;29;19925;-70
2022/01/28 07:40:31;;;;;;;;;;;;;;;;;;4918020;29;19923;-68
2022/01/28 07:42:56;;;;;;;;;;;;;;;;;;4916821;29;20385;-69
2022/01/28 07:45:22;;;;;;;;;;;;;;;;;;4919603;29;20364;-70
2022/01/28 07:47:47;;;;;;;;;;;;;;;;;;4917068;29;19965;-69
2022/01/28 07:50:12;;;;;;;;;;;;;;;;;;4917447;29;20017;-71
2022/01/28 07:52:37;;;;;;;;;;;;;;;;;;4931227;28;20340;-68
2022/01/28 07:55:02;;;;;;;;;;;;;;;;;;4919297;29;19925;-71
2022/01/28 07:57:30;;;;;;;;;;;;;;;;;;4932576;28;19930;-67
2022/01/28 07:59:55;;;;;;;;;;;;;;;;;;4918617;29;20418;-69
2022/01/28 08:02:20;;;;;;;;;;;;;;;;;;4918182;29;19927;-67
2022/01/28 08:04:45;;;;;;;;;;;;;;;;;;4917487;29;20412;-69
2022/01/28 08:07:10;;;;;;;;;;;;;;;;;;4916648;29;19940;-71
2022/01/28 08:09:36;;;;;;;;;;;;;;;;;;4915383;29;19919;-69
2022/01/28 08:12:01;;;;;;;;;;;;;;;;;;4915218;29;19923;-68
2022/01/28 08:14:26;;;;;;;;;;;;;;;;;;4915390;29;19926;-69
2022/01/28 08:16:51;;;;;;;;;;;;;;;;;;4917624;29;20027;-69
2022/01/28 08:19:17;;;;;;;;;;;;;;;;;;4915747;29;19927;-71
2022/01/28 08:21:42;;;;;;;;;;;;;;;;;;4915186;29;19919;-68
2022/01/28 08:24:07;;;;;;;;;;;;;;;;;;4914930;29;20405;-69
2022/01/28 08:26:32;;;;;;;;;;;;;;;;;;4929834;29;19973;-69
2022/01/28 08:28:58;;;;;;;;;;;;;;;;;;4915703;29;19919;-70
2022/01/28 08:31:23;;;;;;;;;;;;;;;;;;4915287;29;20358;-69
2022/01/28 08:33:48;;;;;;;;;;;;;;;;;;4917844;29;20032;-68
2022/01/28 08:36:13;;;;;;;;;;;;;;;;;;4911383;29;19918;-69
2022/01/28 08:38:44;;;;;;;;;;;;;;;;;;4907650;29;20450;-71
2022/01/28 08:41:11;;;;;;;;;;;;;;;;;;4890336;29;19931;-71
2022/01/28 08:43:39;;;;;;;;;;;;;;;;;;4911548;29;20290;-70
2022/01/28 08:46:04;;;;;;;;;;;;;;;;;;4913646;29;19918;-70
2022/01/28 08:48:29;;;;;;;;;;;;;;;;;;4896020;29;19923;-71
2022/01/28 08:50:55;;;;;;;;;;;;;;;;;;4914240;29;19919;-67
2022/01/28 08:53:20;;;;;;;;;;;;;;;;;;4915059;29;19919;-70
2022/01/28 08:55:45;;;;;;;;;;;;;;;;;;4912879;29;19962;-69
2022/01/28 08:58:10;;;;;;;;;;;;;;;;;;4915949;29;20470;-71
2022/01/28 09:00:36;;;;;;;;;;;;;;;;;;4916954;29;20394;-72
2022/01/28 09:03:01;;;;;;;;;;;;;;;;;;4915583;29;20280;-70
2022/01/28 09:05:28;;;;;;;;;;;;;;;;;;4917076;29;19919;-70
2022/01/28 09:07:53;;;;;;;;;;;;;;;;;;4915128;29;20390;-68
2022/01/28 09:10:19;;;;;;;;;;;;;;;;;;4912453;29;20401;-71
2022/01/28 09:13:30;;;;;;;;;;;;;;;;;;4914022;29;19971;-68
2022/01/28 09:15:32;;;;;;;;;;;;;;;;;;4914134;29;20071;-71
2022/01/28 09:17:58;;;;;;;;;;;;;;;;;;4915274;29;19919;-68
2022/01/28 09:20:23;;;;;;;;;;;;;;;;;;4912646;29;19955;-68
2022/01/28 09:22:48;;;;;;;;;;;;;;;;;;4915112;29;19931;-67
2022/01/28 09:25:13;;;;;;;;;;;;;;;;;;4915915;29;19919;-68
2022/01/28 09:27:38;;;;;;;;;;;;;;;;;;4914588;29;19926;-70
2022/01/28 09:30:04;;;;;;;;;;;;;;;;;;4914960;29;19925;-70
2022/01/28 09:32:29;;;;;;;;;;;;;;;;;;4915013;29;19919;-67
2022/01/28 09:34:54;;;;;;;;;;;;;;;;;;4931884;29;20019;-68
2022/01/28 09:37:19;;;;;;;;;;;;;;;;;;4913733;29;19933;-68
2022/01/28 09:39:46;;;;;;;;;;;;;;;;;;4912901;29;20240;-69
2022/01/28 09:42:13;;;;;;;;;;;;;;;;;;4911539;29;19923;-69
2022/01/28 09:44:38;;;;;;;;;;;;;;;;;;4915465;29;19919;-68
2022/01/28 09:47:03;;;;;;;;;;;;;;;;;;4916209;29;19940;-69
2022/01/28 09:49:28;;;;;;;;;;;;;;;;;;4913915;29;19966;-68
2022/01/28 09:51:53;;;;;;;;;;;;;;;;;;4911302;29;20030;-68
2022/01/28 09:54:19;;;;;;;;;;;;;;;;;;4914786;29;20058;-68
2022/01/28 09:56:44;;;;;;;;;;;;;;;;;;4913282;29;19963;-72
2022/01/28 09:59:09;;;;;;;;;;;;;;;;;;4915706;29;19922;-71
2022/01/28 10:01:34;;;;;;;;;;;;;;;;;;4917153;29;20317;-68
2022/01/28 10:03:59;;;;;;;;;;;;;;;;;;4914807;29;19927;-69
2022/01/28 10:06:25;;;;;;;;;;;;;;;;;;4915409;29;19919;-68
2022/01/28 10:08:50;;;;;;;;;;;;;;;;;;4913066;29;19922;-68
2022/01/28 10:11:17;;;;;;;;;;;;;;;;;;4914836;29;20369;-70
2022/01/28 10:13:52;;;;;;;;;;;;;;;;;;4915311;29;19923;-69
2022/01/28 10:16:18;;;;;;;;;;;;;;;;;;4916776;29;19959;-70
2022/01/28 10:18:43;;;;;;;;;;;;;;;;;;4914627;29;19954;-67
2022/01/28 10:21:08;;;;;;;;;;;;;;;;;;4913296;29;19934;-67
2022/01/28 10:23:33;;;;;;;;;;;;;;;;;;4912809;29;19943;-71
2022/01/28 10:25:59;;;;;;;;;;;;;;;;;;4913624;29;19919;-71
2022/01/28 10:28:24;;;;;;;;;;;;;;;;;;4913556;29;19947;-71
2022/01/28 10:30:49;;;;;;;;;;;;;;;;;;4927042;29;19925;-69
2022/01/28 10:33:15;;;;;;;;;;;;;;;;;;4931297;29;19957;-71
2022/01/28 10:35:40;;;;;;;;;;;;;;;;;;4912309;29;19930;-74
2022/01/28 10:38:07;;;;;;;;;;;;;;;;;;4914981;29;19919;-71
2022/01/28 10:40:32;;;;;;;;;;;;;;;;;;4911768;29;19926;-71
2022/01/28 10:42:57;;;;;;;;;;;;;;;;;;4915558;29;19940;-70
2022/01/28 10:45:24;;;;;;;;;;;;;;;;;;4916069;29;20360;-70
2022/01/28 10:47:50;;;;;;;;;;;;;;;;;;4911266;28;19919;-68
2022/01/28 10:50:15;;;;;;;;;;;;;;;;;;4911656;29;19967;-69
2022/01/28 10:52:40;;;;;;;;;;;;;;;;;;4913655;29;19923;-70
2022/01/28 10:55:05;;;;;;;;;;;;;;;;;;4929162;29;20324;-74
2022/01/28 10:57:31;;;;;;;;;;;;;;;;;;4918525;29;20292;-71
2022/01/28 10:59:56;;;;;;;;;;;;;;;;;;4916395;29;20014;-71
2022/01/28 11:02:23;;;;;;;;;;;;;;;;;;4908542;29;19915;-70
2022/01/28 11:04:48;;;;;;;;;;;;;;;;;;4915087;29;19919;-70
2022/01/28 11:07:14;;;;;;;;;;;;;;;;;;4914293;29;19980;-69
2022/01/28 11:09:40;;;;;;;;;;;;;;;;;;4913825;29;19930;-71
2022/01/28 11:12:05;;;;;;;;;;;;;;;;;;4915700;29;19923;-70
2022/01/28 11:14:30;;;;;;;;;;;;;;;;;;4930376;29;20376;-70
2022/01/28 11:16:56;;;;;;;;;;;;;;;;;;4914994;29;19922;-70
2022/01/28 11:19:21;;;;;;;;;;;;;;;;;;4915049;29;19927;-71
2022/01/28 11:21:46;;;;;;;;;;;;;;;;;;4914384;29;19974;-69
2022/01/28 11:24:12;;;;;;;;;;;;;;;;;;4914944;29;19923;-69
2022/01/28 11:26:37;;;;;;;;;;;;;;;;;;4918715;29;19919;-71
2022/01/28 11:29:03;;;;;;;;;;;;;;;;;;4917725;29;19919;-69
2022/01/28 11:31:28;;;;;;;;;;;;;;;;;;4917033;29;19919;-69
2022/01/28 11:33:53;;;;;;;;;;;;;;;;;;4919691;29;19927;-68
2022/01/28 11:36:18;;;;;;;;;;;;;;;;;;4920450;29;20275;-67
2022/01/28 11:38:44;;;;;;;;;;;;;;;;;;4920998;29;19966;-73
2022/01/28 11:41:09;;;;;;;;;;;;;;;;;;4920103;29;20293;-69
2022/01/28 11:43:34;;;;;;;;;;;;;;;;;;4919773;29;20009;-67
2022/01/28 11:45:59;;;;;;;;;;;;;;;;;;4923548;29;20281;-66
2022/01/28 11:48:25;;;;;;;;;;;;;;;;;;4918355;29;19923;-68
2022/01/28 11:50:50;;;;;;;;;;;;;;;;;;4917170;29;19923;-70
2022/01/28 11:53:15;;;;;;;;;;;;;;;;;;4917460;29;19924;-68
2022/01/28 11:55:40;;;;;;;;;;;;;;;;;;4912999;29;19922;-69
2022/01/28 11:58:05;;;;;;;;;;;;;;;;;;4914069;29;19926;-70
2022/01/28 12:00:31;;;;;;;;;;;;;;;;;;4918833;29;19958;-70
2022/01/28 12:02:56;;;;;;;;;;;;;;;;;;4915649;29;20279;-68
2022/01/28 12:05:21;;;;;;;;;;;;;;;;;;4918042;29;20315;-70
2022/01/28 12:07:46;;;;;;;;;;;;;;;;;;4922344;29;19915;-73
2022/01/28 12:10:11;;;;;;;;;;;;;;;;;;4922258;29;19919;-67
2022/01/28 12:12:37;;;;;;;;;;;;;;;;;;4924111;29;19923;-71
2022/01/28 12:17:34;;;;;;;;;;;;;;;;;;4920378;29;20144;-70
2022/01/28 12:19:59;;;;;;;;;;;;;;;;;;4919645;29;20382;-72
2022/01/28 12:22:24;;;;;;;;;;;;;;;;;;4920878;29;19926;-66
2022/01/28 12:24:49;;;;;;;;;;;;;;;;;;4916777;29;20292;-67
2022/01/28 12:27:14;;;;;;;;;;;;;;;;;;4919914;29;19914;-67
2022/01/28 12:29:40;;;;;;;;;;;;;;;;;;4916519;29;20399;-68
2022/01/28 12:32:05;;;;;;;;;;;;;;;;;;4934162;29;20281;-72
2022/01/28 12:34:30;;;;;;;;;;;;;;;;;;4919422;29;19922;-67
2022/01/28 12:36:57;;;;;;;;;;;;;;;;;;4922991;29;19974;-70
2022/01/28 12:39:32;;;;;;;;;;;;;;;;;;4918846;29;19934;-68
2022/01/28 12:42:08;;;;;;;;;;;;;;;;;;4919264;29;20408;-66
2022/01/28 12:44:34;;;;;;;;;;;;;;;;;;4921517;29;19966;-68
2022/01/28 12:46:59;;;;;;;;;;;;;;;;;;4907764;29;20284;-73
2022/01/28 12:49:24;;;;;;;;;;;;;;;;;;4914217;29;19915;-69
2022/01/28 12:51:50;;;;;;;;;;;;;;;;;;4914156;29;20289;-71
2022/01/28 12:54:15;;;;;;;;;;;;;;;;;;4914108;29;20361;-67
2022/01/28 12:56:40;;;;;;;;;;;;;;;;;;4916271;29;19919;-71
2022/01/28 12:59:05;;;;;;;;;;;;;;;;;;4914379;29;19975;-70
2022/01/28 13:01:31;;;;;;;;;;;;;;;;;;4915251;29;20435;-69
2022/01/28 13:04:01;;;;;;;;;;;;;;;;;;4927643;29;19920;-70
2022/01/28 13:08:58;;;;;;;;;;;;;;;;;;4914466;29;19919;-70
2022/01/28 13:11:24;;;;;;;;;;;;;;;;;;4930940;29;19935;-69
2022/01/28 13:13:49;;;;;;;;;;;;;;;;;;4913519;29;20023;-69
2022/01/28 13:16:14;;;;;;;;;;;;;;;;;;4916050;29;19994;-69
2022/01/28 13:18:40;;;;;;;;;;;;;;;;;;4914034;29;20254;-70
2022/01/28 13:21:05;;;;;;;;;;;;;;;;;;4915791;29;20260;-68
2022/01/28 13:23:30;;;;;;;;;;;;;;;;;;4914623;29;19923;-70
2022/01/28 13:25:55;;;;;;;;;;;;;;;;;;4916192;29;19915;-69
2022/01/28 13:28:22;;;;;;;;;;;;;;;;;;4916593;29;19923;-70
2022/01/28 13:30:47;;;;;;;;;;;;;;;;;;4916646;29;19919;-69
2022/01/28 13:33:13;;;;;;;;;;;;;;;;;;4908245;29;19978;-74
2022/01/28 13:35:39;;;;;;;;;;;;;;;;;;4913396;29;19926;-69
2022/01/28 13:38:07;;;;;;;;;;;;;;;;;;4913134;29;20330;-71
2022/01/28 13:40:32;;;;;;;;;;;;;;;;;;4913379;29;20034;-68
2022/01/28 13:42:57;;;;;;;;;;;;;;;;;;4916074;29;20288;-70
2022/01/28 13:45:23;;;;;;;;;;;;;;;;;;4915135;29;19924;-69
2022/01/28 13:47:48;;;;;;;;;;;;;;;;;;4914354;29;20258;-68
2022/01/28 13:50:13;;;;;;;;;;;;;;;;;;4914741;29;19911;-68
2022/01/28 13:52:48;;;;;;;;;;;;;;;;;;4915972;29;19922;-68
2022/01/28 13:55:14;;;;;;;;;;;;;;;;;;4914591;29;20295;-68
2022/01/28 13:57:39;;;;;;;;;;;;;;;;;;4917306;29;20419;-72
2022/01/28 14:00:04;;;;;;;;;;;;;;;;;;4913999;29;19927;-69
2022/01/28 14:02:40;;;;;;;;;;;;;;;;;;4914817;29;20531;-68
2022/01/28 14:05:05;;;;;;;;;;;;;;;;;;4913047;29;20013;-70
2022/01/28 14:07:30;;;;;;;;;;;;;;;;;;4915611;29;19930;-68
2022/01/28 14:09:57;;;;;;;;;;;;;;;;;;4915960;29;19950;-69
2022/01/28 14:12:23;;;;;;;;;;;;;;;;;;4914425;29;19926;-68
2022/01/28 14:14:48;;;;;;;;;;;;;;;;;;4916985;29;19934;-68
2022/01/28 14:17:14;;;;;;;;;;;;;;;;;;4915423;29;20477;-72
2022/01/28 14:19:40;;;;;;;;;;;;;;;;;;4915221;29;20340;-69
2022/01/28 14:22:08;;;;;;;;;;;;;;;;;;4914952;29;21348;-68
2022/01/28 14:24:33;;;;;;;;;;;;;;;;;;4914211;29;20288;-70
2022/01/28 14:32:01;;;;;;;;;;;;;;;;;;4917912;29;19923;-72
2022/01/28 14:34:26;;;;;;;;;;;;;;;;;;4917263;29;19923;-73
2022/01/28 14:36:52;;;;;;;;;;;;;;;;;;4918295;29;20026;-69
2022/01/28 14:39:17;;;;;;;;;;;;;;;;;;4916822;29;20274;-67
2022/01/28 14:41:42;;;;;;;;;;;;;;;;;;4916787;29;19923;-70
2022/01/28 14:44:07;;;;;;;;;;;;;;;;;;4917174;29;19919;-71
2022/01/28 14:46:32;;;;;;;;;;;;;;;;;;4919126;29;20444;-67
2022/01/28 14:49:00;;;;;;;;;;;;;;;;;;4918676;29;20299;-67
2022/01/28 14:51:26;;;;;;;;;;;;;;;;;;4918038;29;20073;-66
2022/01/28 14:53:51;;;;;;;;;;;;;;;;;;4915191;29;19994;-67
2022/01/28 14:56:16;;;;;;;;;;;;;;;;;;4918339;29;20408;-67
2022/01/28 14:58:44;;;;;;;;;;;;;;;;;;4932890;29;19929;-67
2022/01/28 15:01:09;;;;;;;;;;;;;;;;;;4921999;29;19927;-70
2022/01/28 15:03:35;;;;;;;;;;;;;;;;;;4918268;29;19925;-70
2022/01/28 15:06:00;;;;;;;;;;;;;;;;;;4922080;29;19926;-71
2022/01/28 15:08:27;;;;;;;;;;;;;;;;;;4918579;29;19926;-67
2022/01/28 15:10:57;;;;;;;;;;;;;;;;;;4919723;29;19949;-68
2022/01/28 15:13:22;;;;;;;;;;;;;;;;;;4912824;29;19970;-70
2022/01/28 15:15:47;;;;;;;;;;;;;;;;;;4909927;29;20276;-69
2022/01/28 15:18:12;;;;;;;;;;;;;;;;;;4917230;29;20029;-70
2022/01/28 15:20:38;;;;;;;;;;;;;;;;;;4914322;28;19923;-70
2022/01/28 15:23:03;;;;;;;;;;;;;;;;;;4917458;29;19933;-70
2022/01/28 15:25:28;;;;;;;;;;;;;;;;;;4920046;29;20030;-69
2022/01/28 15:27:54;;;;;;;;;;;;;;;;;;4917590;29;19919;-69
2022/01/28 15:30:28;;;;;;;;;;;;;;;;;;4917102;29;19914;-70
2022/01/28 15:38:11;;;;;;;;;;;;;;;;;;4915579;29;20326;-68
2022/01/28 15:40:36;;;;;;;;;;;;;;;;;;4913977;29;19927;-68
2022/01/28 15:43:02;;;;;;;;;;;;;;;;;;4920134;29;19923;-67
2022/01/28 15:45:29;;;;;;;;;;;;;;;;;;4917298;29;20324;-70
2022/01/28 15:47:54;;;;;;;;;;;;;;;;;;4917925;29;20372;-69
2022/01/28 15:50:20;;;;;;;;;;;;;;;;;;4912879;29;20035;-69
2022/01/28 15:52:46;;;;;;;;;;;;;;;;;;4918639;29;20318;-67
2022/01/28 15:55:11;;;;;;;;;;;;;;;;;;4916950;29;20214;-68
2022/01/28 15:57:36;;;;;;;;;;;;;;;;;;4918090;29;19919;-69
2022/01/28 16:00:01;;;;;;;;;;;;;;;;;;4915740;29;19926;-72
2022/01/28 16:02:26;;;;;;;;;;;;;;;;;;4918829;29;20026;-69
2022/01/28 16:04:52;;;;;;;;;;;;;;;;;;4916626;29;19919;-67
2022/01/28 16:07:18;;;;;;;;;;;;;;;;;;4915785;29;19925;-69
2022/01/28 16:09:57;;;;;;;;;;;;;;;;;;4919737;29;19919;-72
2022/01/28 16:15:08;;;;;;;;;;;;;;;;;;4916865;29;20443;-69
2022/01/28 16:17:39;;;;;;;;;;;;;;;;;;4916261;29;19926;-68
2022/01/28 16:20:04;;;;;;;;;;;;;;;;;;4912923;29;19965;-70
2022/01/28 16:22:30;;;;;;;;;;;;;;;;;;4915692;29;20345;-68
2022/01/28 16:24:55;;;;;;;;;;;;;;;;;;4916288;29;19919;-69
2022/01/28 16:27:20;;;;;;;;;;;;;;;;;;4918285;29;20262;-66
2022/01/28 16:29:45;;;;;;;;;;;;;;;;;;4915000;29;20299;-68
2022/01/28 16:32:11;;;;;;;;;;;;;;;;;;4916599;29;19923;-69
2022/01/28 16:34:36;;;;;;;;;;;;;;;;;;4916169;29;20321;-67
2022/01/28 16:37:01;;;;;;;;;;;;;;;;;;4916180;29;19957;-69
2022/01/28 16:39:26;;;;;;;;;;;;;;;;;;4916688;29;20071;-70
2022/01/28 16:41:58;;;;;;;;;;;;;;;;;;4912215;29;20692;-69
2022/01/28 16:44:24;;;;;;;;;;;;;;;;;;4909902;29;19963;-68
2022/01/28 16:46:49;;;;;;;;;;;;;;;;;;4914675;29;20836;-70
2022/01/28 16:49:15;;;;;;;;;;;;;;;;;;4914262;29;19915;-68
2022/01/28 16:51:40;;;;;;;;;;;;;;;;;;4916675;29;19926;-68
2022/01/28 16:54:05;;;;;;;;;;;;;;;;;;4915983;29;19926;-69
2022/01/28 16:56:30;;;;;;;;;;;;;;;;;;4916399;29;19926;-72
2022/01/28 16:58:55;;;;;;;;;;;;;;;;;;4916224;29;20077;-70
2022/01/28 17:01:21;;;;;;;;;;;;;;;;;;4916138;29;20294;-71
2022/01/28 17:03:48;;;;;;;;;;;;;;;;;;4918673;29;19919;-69
2022/01/28 17:06:14;;;;;;;;;;;;;;;;;;4915777;29;20107;-69
2022/01/28 17:08:39;;;;;;;;;;;;;;;;;;4917464;29;19994;-69
2022/01/28 17:11:26;;;;;;;;;;;;;;;;;;4917111;29;19922;-68
2022/01/28 17:13:58;;;;;;;;;;;;;;;;;;5063215;27;20011;-67
2022/01/28 17:16:26;;;;;;;;;;;;;;;;;;5056460;28;19920;-68
2022/01/28 17:18:51;;;;;;;;;;;;;;;;;;5043562;28;19917;-67
2022/01/28 17:21:16;;;;;;;;;;;;;;;;;;5052398;28;20332;-69
2022/01/28 17:23:42;;;;;;;;;;;;;;;;;;5060373;28;19970;-67
2022/01/28 17:26:07;;;;;;;;;;;;;;;;;;5056794;28;19917;-68
2022/01/28 17:28:32;;;;;;;;;;;;;;;;;;5061799;28;20403;-70
2022/01/28 17:30:57;;;;;;;;;;;;;;;;;;5054455;28;19917;-67
2022/01/28 17:33:23;;;;;;;;;;;;;;;;;;5068968;28;20488;-70
2022/01/28 17:35:48;;;;;;;;;;;;;;;;;;5062114;28;19924;-67
2022/01/28 17:38:19;;;;;;;;;;;;;;;;;;5052062;28;20327;-68
2022/01/28 17:40:44;;;;;;;;;;;;;;;;;;5060054;28;19917;-69
2022/01/28 17:43:10;;;;;;;;;;;;;;;;;;5057859;28;19928;-68
2022/01/28 17:45:35;;;;;;;;;;;;;;;;;;5057967;28;19920;-68
2022/01/28 17:48:00;;;;;;;;;;;;;;;;;;5063716;28;20474;-67
2022/01/28 17:50:25;;;;;;;;;;;;;;;;;;5052544;28;20257;-67
2022/01/28 17:52:51;;;;;;;;;;;;;;;;;;5062683;28;20232;-71
2022/01/28 17:55:16;;;;;;;;;;;;;;;;;;5054451;28;19920;-67
2022/01/28 17:57:41;;;;;;;;;;;;;;;;;;5055737;28;19916;-71
2022/01/28 18:00:06;;;;;;;;;;;;;;;;;;5059349;28;19916;-67
2022/01/28 18:02:33;;;;;;;;;;;;;;;;;;5051316;28;19943;-67
2022/01/28 18:04:58;;;;;;;;;;;;;;;;;;5058818;28;20281;-68
2022/01/28 18:07:23;;;;;;;;;;;;;;;;;;5056062;28;19927;-68
2022/01/28 18:09:48;;;;;;;;;;;;;;;;;;5050829;28;19968;-68
2022/01/28 18:12:14;;;;;;;;;;;;;;;;;;5054889;28;19920;-71
2022/01/28 18:14:39;;;;;;;;;;;;;;;;;;5052501;28;19916;-67
2022/01/28 18:17:04;;;;;;;;;;;;;;;;;;5058192;28;19917;-69
2022/01/28 18:19:29;;;;;;;;;;;;;;;;;;5053113;28;20412;-70
2022/01/28 18:21:54;;;;;;;;;;;;;;;;;;5052039;28;20429;-67
2022/01/28 18:24:20;;;;;;;;;;;;;;;;;;5052593;28;19972;-68